createdAt,value
2017-12-25T00:00:33.577Z,1.30
2017-12-25T00:03:00.820Z,1.10
2017-12-25T00:05:28.090Z,1.27
2017-12-25T00:07:55.387Z,1.40
2017-12-25T00:10:22.728Z,1.20
2017-12-25T00:12:49.992Z,1.20
2017-12-25T00:15:17.241Z,1.30
2017-12-25T00:17:44.511Z,1.50
2017-12-25T00:20:11.747Z,1.50
2017-12-25T00:22:39.019Z,1.20
2017-12-25T00:25:06.268Z,1.23
2017-12-25T00:27:33.537Z,1.00
2017-12-25T00:30:00.780Z,1.20
2017-12-25T00:32:28.058Z,1.10
2017-12-25T00:34:55.300Z,1.13
2017-12-25T00:37:22.572Z,1.27
2017-12-25T00:39:49.822Z,1.03
2017-12-25T00:42:17.084Z,1.30
2017-12-25T00:44:44.332Z,1.00
2017-12-25T00:47:11.596Z,1.47
2017-12-25T00:49:38.854Z,1.00
2017-12-25T00:52:06.146Z,1.20
2017-12-25T00:54:33.404Z,1.10
2017-12-25T00:57:00.647Z,1.10
2017-12-25T00:59:27.913Z,1.27
2017-12-25T01:01:55.160Z,1.30
2017-12-25T01:04:22.424Z,1.30
2017-12-25T01:06:49.672Z,1.87
2017-12-25T01:09:17.038Z,1.70
2017-12-25T01:11:44.293Z,1.67
2017-12-25T01:14:11.564Z,1.63
2017-12-25T01:16:38.812Z,1.40
2017-12-25T01:19:06.077Z,1.23
2017-12-25T01:21:33.330Z,1.30
2017-12-25T01:24:00.602Z,1.30
2017-12-25T01:26:27.856Z,1.00
2017-12-25T01:28:55.260Z,1.43
2017-12-25T01:31:22.508Z,1.13
2017-12-25T01:33:49.764Z,1.50
2017-12-25T01:36:17.124Z,1.40
2017-12-25T01:38:44.372Z,1.37
2017-12-25T01:41:11.632Z,1.20
2017-12-25T01:43:38.886Z,1.10
2017-12-25T01:46:06.147Z,0.80
2017-12-25T01:48:33.398Z,0.90
2017-12-25T01:51:00.660Z,1.03
2017-12-25T01:53:27.708Z,1.00
2017-12-25T01:55:54.768Z,1.23
2017-12-25T01:58:25.464Z,1.07
2017-12-25T02:00:55.529Z,1.00
2017-12-25T02:03:22.579Z,1.27
2017-12-25T02:05:54.364Z,1.53
2017-12-25T02:08:29.342Z,1.30
2017-12-25T02:10:56.438Z,1.20
2017-12-25T02:13:23.640Z,1.73
2017-12-25T02:15:51.222Z,1.43
2017-12-25T02:18:19.128Z,1.20
2017-12-25T02:20:46.376Z,1.57
2017-12-25T02:23:13.651Z,1.77
2017-12-25T02:25:40.892Z,1.77
2017-12-25T02:28:08.164Z,1.70
2017-12-25T02:30:35.412Z,1.57
2017-12-25T02:33:02.688Z,1.10
2017-12-25T02:35:29.944Z,1.00
2017-12-25T02:37:57.204Z,1.10
2017-12-25T02:40:24.449Z,1.20
2017-12-25T02:42:51.708Z,1.00
2017-12-25T02:45:18.958Z,1.10
2017-12-25T02:47:46.223Z,1.30
2017-12-25T02:50:13.476Z,1.30
2017-12-25T02:52:40.753Z,0.90
2017-12-25T02:55:07.992Z,1.13
2017-12-25T02:57:35.304Z,1.10
2017-12-25T03:00:02.560Z,1.30
2017-12-25T03:02:29.804Z,1.20
2017-12-25T03:04:57.080Z,1.20
2017-12-25T03:07:24.333Z,1.10
2017-12-25T03:09:51.602Z,1.00
2017-12-25T03:12:18.847Z,0.90
2017-12-25T03:14:46.112Z,1.07
2017-12-25T03:17:13.365Z,1.10
2017-12-25T03:19:40.640Z,0.90
2017-12-25T03:22:07.890Z,0.97
2017-12-25T03:27:08.786Z,0.80
2017-12-25T03:29:36.051Z,1.00
2017-12-25T03:32:03.300Z,0.90
2017-12-25T03:34:30.565Z,0.93
2017-12-25T03:36:57.813Z,1.30
2017-12-25T03:39:25.084Z,0.90
2017-12-25T03:41:52.327Z,1.10
2017-12-25T03:44:19.628Z,1.00
2017-12-25T03:46:46.882Z,0.90
2017-12-25T03:49:14.132Z,0.73
2017-12-25T03:51:41.392Z,1.03
2017-12-25T03:54:08.637Z,1.03
2017-12-25T03:56:35.901Z,0.80
2017-12-25T03:59:03.149Z,1.03
2017-12-25T04:01:30.416Z,1.00
2017-12-25T04:03:57.672Z,1.10
2017-12-25T04:06:24.937Z,0.90
2017-12-25T04:08:52.188Z,0.90
2017-12-25T04:11:19.467Z,1.00
2017-12-25T04:13:46.711Z,0.77
2017-12-25T04:16:13.972Z,0.80
2017-12-25T04:18:41.226Z,0.90
2017-12-25T04:21:08.489Z,0.70
2017-12-25T04:23:35.735Z,0.63
2017-12-25T04:26:02.978Z,0.70
2017-12-25T04:28:30.245Z,0.80
2017-12-25T04:30:57.491Z,0.60
2017-12-25T04:33:24.759Z,0.80
2017-12-25T04:35:52.008Z,0.60
2017-12-25T04:38:19.269Z,0.60
2017-12-25T04:40:46.524Z,0.60
2017-12-25T04:43:13.788Z,0.60
2017-12-25T04:45:41.039Z,0.70
2017-12-25T04:48:08.296Z,0.70
2017-12-25T04:50:35.544Z,0.73
2017-12-25T04:53:02.844Z,1.00
2017-12-25T04:55:30.092Z,0.70
2017-12-25T04:57:57.345Z,0.70
2017-12-25T05:00:24.615Z,0.73
2017-12-25T05:02:51.863Z,0.70
2017-12-25T05:05:19.121Z,0.60
2017-12-25T05:07:46.372Z,0.60
2017-12-25T05:10:13.646Z,0.80
2017-12-25T05:12:40.888Z,0.60
2017-12-25T05:15:08.170Z,0.70
2017-12-25T05:17:35.417Z,0.73
2017-12-25T05:20:02.682Z,0.70
2017-12-25T05:22:29.930Z,1.00
2017-12-25T05:24:57.195Z,0.63
2017-12-25T05:27:24.440Z,1.00
2017-12-25T05:29:51.712Z,0.80
2017-12-25T05:32:18.956Z,0.83
2017-12-25T05:34:46.212Z,0.70
2017-12-25T05:37:13.473Z,0.90
2017-12-25T05:39:40.720Z,0.60
2017-12-25T05:42:07.994Z,0.60
2017-12-25T05:44:35.228Z,0.90
2017-12-25T05:47:02.493Z,0.70
2017-12-25T05:49:29.746Z,0.73
2017-12-25T05:51:57.008Z,0.80
2017-12-25T05:54:24.269Z,0.93
2017-12-25T05:56:51.537Z,0.87
2017-12-25T05:59:18.785Z,0.90
2017-12-25T06:01:46.048Z,0.80
2017-12-25T06:04:13.303Z,0.60
2017-12-25T06:06:40.572Z,0.70
2017-12-25T06:09:07.821Z,0.60
2017-12-25T06:11:35.142Z,0.60
2017-12-25T06:14:02.360Z,0.67
2017-12-25T06:16:29.674Z,0.70
2017-12-25T06:18:56.963Z,0.70
2017-12-25T06:21:24.213Z,0.80
2017-12-25T06:23:51.467Z,0.60
2017-12-25T06:26:18.740Z,0.70
2017-12-25T06:28:46.000Z,0.50
2017-12-25T06:31:13.275Z,0.63
2017-12-25T06:33:40.525Z,0.60
2017-12-25T06:36:07.800Z,0.50
2017-12-25T06:38:35.069Z,0.60
2017-12-25T06:41:02.333Z,0.50
2017-12-25T06:43:29.580Z,0.50
2017-12-25T06:45:56.853Z,0.57
2017-12-25T06:48:24.101Z,0.60
2017-12-25T06:50:51.376Z,0.60
2017-12-25T06:53:18.628Z,0.60
2017-12-25T06:55:45.905Z,0.70
2017-12-25T06:58:13.149Z,1.10
2017-12-25T07:00:40.400Z,1.30
2017-12-25T07:03:07.717Z,1.50
2017-12-25T07:05:34.968Z,1.20
2017-12-25T07:08:02.245Z,1.60
2017-12-25T07:10:29.493Z,1.60
2017-12-25T07:12:56.774Z,1.60
2017-12-25T07:15:24.018Z,1.80
2017-12-25T07:17:51.264Z,1.90
2017-12-25T07:20:18.541Z,2.13
2017-12-25T07:22:45.789Z,2.00
2017-12-25T07:25:13.060Z,1.80
2017-12-25T07:27:40.338Z,1.70
2017-12-25T07:30:07.583Z,1.50
2017-12-25T07:32:34.865Z,2.00
2017-12-25T07:35:02.118Z,1.47
2017-12-25T07:37:29.393Z,1.40
2017-12-25T07:39:56.640Z,1.50
2017-12-25T07:42:23.913Z,1.30
2017-12-25T07:44:51.162Z,1.53
2017-12-25T07:47:18.432Z,1.60
2017-12-25T07:49:45.676Z,1.37
2017-12-25T07:52:12.948Z,1.40
2017-12-25T07:54:40.228Z,1.80
2017-12-25T07:57:07.505Z,2.00
2017-12-25T07:59:34.792Z,1.70
2017-12-25T08:02:02.045Z,1.80
2017-12-25T08:04:29.293Z,1.80
2017-12-25T08:06:56.580Z,2.10
2017-12-25T08:09:25.085Z,1.80
2017-12-25T08:11:54.011Z,1.60
2017-12-25T08:14:22.521Z,1.43
2017-12-25T08:16:50.912Z,1.50
2017-12-25T08:19:18.937Z,1.60
2017-12-25T08:21:47.886Z,1.57
2017-12-25T08:24:16.256Z,1.60
2017-12-25T08:26:44.027Z,1.63
2017-12-25T08:29:11.809Z,1.80
2017-12-25T08:31:39.869Z,1.83
2017-12-25T08:34:07.359Z,1.97
2017-12-25T08:36:36.185Z,1.90
2017-12-25T08:39:03.607Z,1.50
2017-12-25T08:41:31.258Z,1.93
2017-12-25T08:43:59.253Z,1.70
2017-12-25T08:46:27.679Z,1.43
2017-12-25T08:48:56.550Z,1.60
2017-12-25T08:51:25.219Z,1.70
2017-12-25T08:53:53.423Z,1.70
2017-12-25T08:56:22.108Z,1.40
2017-12-25T08:58:50.642Z,1.40
2017-12-25T09:01:18.669Z,1.40
2017-12-25T09:03:46.959Z,1.20
2017-12-25T09:06:15.388Z,1.70
2017-12-25T09:08:44.018Z,1.60
2017-12-25T09:11:12.480Z,1.50
2017-12-25T09:13:40.401Z,1.17
2017-12-25T09:16:08.838Z,1.30
2017-12-25T09:18:37.128Z,1.57
2017-12-25T09:21:04.482Z,1.33
2017-12-25T09:23:32.262Z,1.50
2017-12-25T09:26:00.964Z,2.80
2017-12-25T09:28:28.982Z,1.80
2017-12-25T09:30:57.028Z,1.60
2017-12-25T09:33:24.843Z,1.47
2017-12-25T09:35:53.214Z,1.30
2017-12-25T09:38:21.452Z,1.60
2017-12-25T09:40:49.085Z,1.63
2017-12-25T09:43:17.060Z,1.70
2017-12-25T09:45:45.821Z,1.40
2017-12-25T09:48:14.476Z,1.60
2017-12-25T09:50:42.086Z,1.60
2017-12-25T09:53:09.361Z,1.63
2017-12-25T09:55:36.628Z,2.47
2017-12-25T09:58:03.880Z,2.13
2017-12-25T10:00:31.150Z,2.63
2017-12-25T10:02:58.420Z,3.30
2017-12-25T10:05:25.693Z,3.20
2017-12-25T10:07:52.945Z,3.03
2017-12-25T10:10:20.232Z,2.83
2017-12-25T10:12:47.481Z,3.53
2017-12-25T10:15:14.738Z,3.10
2017-12-25T10:17:41.992Z,3.30
2017-12-25T10:20:09.245Z,3.20
2017-12-25T10:22:36.520Z,3.50
2017-12-25T10:25:03.772Z,3.60
2017-12-25T10:27:31.045Z,3.60
2017-12-25T10:29:58.312Z,3.07
2017-12-25T10:32:25.594Z,3.50
2017-12-25T10:34:52.837Z,3.30
2017-12-25T10:37:20.088Z,3.83
2017-12-25T10:39:47.368Z,3.17
2017-12-25T10:42:14.664Z,3.13
2017-12-25T10:44:42.060Z,2.90
2017-12-25T10:47:09.331Z,4.00
2017-12-25T10:49:36.609Z,3.47
2017-12-25T10:52:03.848Z,3.10
2017-12-25T10:54:31.136Z,3.00
2017-12-25T10:56:58.396Z,3.13
2017-12-25T10:59:25.699Z,2.90
2017-12-25T11:01:52.972Z,2.80
2017-12-25T11:04:20.254Z,3.03
2017-12-25T11:06:47.533Z,3.27
2017-12-25T11:09:14.779Z,2.67
2017-12-25T11:11:42.048Z,2.83
2017-12-25T11:14:09.301Z,2.57
2017-12-25T11:16:36.580Z,3.13
2017-12-25T11:19:03.832Z,2.70
2017-12-25T11:21:31.138Z,2.57
2017-12-25T11:23:58.425Z,2.40
2017-12-25T11:26:25.721Z,2.37
2017-12-25T11:28:52.975Z,2.47
2017-12-25T11:31:20.267Z,2.60
2017-12-25T11:33:47.508Z,2.10
2017-12-25T11:36:14.780Z,2.03
2017-12-25T11:38:42.057Z,1.63
2017-12-25T11:41:09.301Z,2.00
2017-12-25T11:43:36.584Z,2.67
2017-12-25T11:46:03.842Z,2.20
2017-12-25T11:48:31.094Z,2.17
2017-12-25T11:50:58.406Z,2.00
2017-12-25T11:53:26.532Z,1.93
2017-12-25T11:55:55.134Z,2.10
2017-12-25T11:58:23.399Z,2.20
2017-12-25T12:00:50.887Z,1.87
2017-12-25T12:03:18.205Z,2.73
2017-12-25T12:05:45.556Z,2.30
2017-12-25T12:08:12.812Z,2.10
2017-12-25T12:10:40.063Z,2.30
2017-12-25T12:13:07.561Z,2.10
2017-12-25T12:15:34.854Z,1.87
2017-12-25T12:18:02.120Z,2.27
2017-12-25T12:20:29.363Z,1.83
2017-12-25T12:22:56.639Z,2.13
2017-12-25T12:25:23.912Z,2.40
2017-12-25T12:27:51.165Z,2.10
2017-12-25T12:30:18.448Z,1.80
2017-12-25T12:32:45.699Z,1.80
2017-12-25T12:35:12.979Z,2.00
2017-12-25T12:37:40.228Z,1.70
2017-12-25T12:40:07.491Z,1.93
2017-12-25T12:42:34.769Z,1.93
2017-12-25T12:45:02.017Z,2.03
2017-12-25T12:47:29.268Z,1.73
2017-12-25T12:49:56.540Z,1.70
2017-12-25T12:52:23.824Z,1.77
2017-12-25T12:54:51.078Z,2.10
2017-12-25T12:57:18.389Z,1.87
2017-12-25T12:59:45.659Z,1.90
2017-12-25T13:02:12.911Z,2.23
2017-12-25T13:04:40.253Z,2.20
2017-12-25T13:07:07.496Z,2.77
2017-12-25T13:09:34.777Z,2.07
2017-12-25T13:12:02.292Z,2.10
2017-12-25T13:14:29.820Z,2.50
2017-12-25T13:16:57.130Z,2.53
2017-12-25T13:19:24.380Z,2.40
2017-12-25T13:21:51.671Z,3.10
2017-12-25T13:24:19.112Z,2.70
2017-12-25T13:26:46.359Z,2.73
2017-12-25T13:29:13.637Z,2.70
2017-12-25T13:31:40.891Z,2.80
2017-12-25T13:34:08.140Z,2.70
2017-12-25T13:36:35.405Z,2.73
2017-12-25T13:39:02.660Z,3.20
2017-12-25T13:41:29.948Z,2.57
2017-12-25T13:43:58.041Z,3.10
2017-12-25T13:46:25.284Z,2.93
2017-12-25T13:48:52.557Z,2.60
2017-12-25T13:51:19.812Z,2.87
2017-12-25T13:53:47.087Z,3.03
2017-12-25T13:56:14.328Z,3.27
2017-12-25T13:58:41.602Z,2.87
2017-12-25T14:01:08.855Z,2.80
2017-12-25T14:03:36.130Z,2.83
2017-12-25T14:08:56.665Z,2.50
2017-12-25T14:11:23.917Z,2.27
2017-12-25T14:13:51.192Z,2.63
2017-12-25T14:16:18.553Z,2.80
2017-12-25T14:18:45.806Z,2.93
2017-12-25T14:21:13.054Z,3.20
2017-12-25T14:23:40.409Z,3.17
2017-12-25T14:26:07.661Z,3.37
2017-12-25T14:28:34.939Z,3.23
2017-12-25T14:31:02.185Z,3.17
2017-12-25T14:33:29.429Z,3.53
2017-12-25T14:35:56.711Z,3.83
2017-12-25T14:38:23.980Z,3.70
2017-12-25T14:40:51.228Z,3.80
2017-12-25T14:43:18.505Z,3.47
2017-12-25T14:45:45.763Z,3.50
2017-12-25T14:48:13.024Z,3.70
2017-12-25T14:50:40.296Z,3.97
2017-12-25T14:53:07.559Z,4.00
2017-12-25T14:55:34.834Z,3.80
2017-12-25T14:58:02.087Z,4.10
2017-12-25T15:00:29.350Z,3.63
2017-12-25T15:02:56.651Z,3.90
2017-12-25T15:05:23.860Z,3.53
2017-12-25T15:07:51.122Z,4.00
2017-12-25T15:10:18.402Z,4.10
2017-12-25T15:12:45.669Z,3.83
2017-12-25T15:15:12.940Z,3.90
2017-12-25T15:17:40.209Z,4.30
2017-12-25T15:20:07.460Z,3.97
2017-12-25T15:22:34.749Z,3.90
2017-12-25T15:25:02.001Z,3.93
2017-12-25T15:27:29.264Z,4.70
2017-12-25T15:29:56.513Z,4.13
2017-12-25T15:32:23.780Z,4.30
2017-12-25T15:34:51.060Z,4.77
2017-12-25T15:37:18.337Z,4.63
2017-12-25T15:39:45.595Z,4.70
2017-12-25T15:42:12.853Z,5.17
2017-12-25T15:44:40.115Z,5.27
2017-12-25T15:47:07.357Z,5.70
2017-12-25T15:49:34.623Z,4.77
2017-12-25T15:52:01.878Z,4.87
2017-12-25T15:54:29.144Z,5.17
2017-12-25T15:56:56.620Z,5.20
2017-12-25T15:59:23.861Z,5.40
2017-12-25T16:01:51.112Z,5.43
2017-12-25T16:04:18.382Z,6.50
2017-12-25T16:06:45.628Z,5.20
2017-12-25T16:09:12.904Z,5.57
2017-12-25T16:11:40.160Z,4.57
2017-12-25T16:14:07.435Z,5.33
2017-12-25T16:16:34.679Z,5.30
2017-12-25T16:19:03.780Z,5.33
2017-12-25T16:21:31.033Z,5.70
2017-12-25T16:23:58.299Z,5.57
2017-12-25T16:26:25.544Z,5.20
2017-12-25T16:28:52.837Z,5.30
2017-12-25T16:31:20.069Z,5.30
2017-12-25T16:33:47.340Z,5.63
2017-12-25T16:36:14.610Z,5.23
2017-12-25T16:38:41.904Z,5.17
2017-12-25T16:41:09.179Z,5.43
2017-12-25T16:43:36.424Z,6.63
2017-12-25T16:46:03.678Z,5.90
2017-12-25T16:48:30.943Z,6.50
2017-12-25T16:50:58.189Z,5.77
2017-12-25T16:53:25.459Z,6.03
2017-12-25T16:55:52.732Z,6.30
2017-12-25T16:58:19.976Z,5.70
2017-12-25T17:00:47.257Z,6.77
2017-12-25T17:03:14.514Z,6.03
2017-12-25T17:05:41.786Z,6.80
2017-12-25T17:08:09.045Z,5.60
2017-12-25T17:10:36.292Z,5.97
2017-12-25T17:13:03.560Z,7.20
2017-12-25T17:15:30.816Z,8.23
2017-12-25T17:17:58.089Z,7.17
2017-12-25T17:20:25.345Z,6.70
2017-12-25T17:22:52.604Z,6.40
2017-12-25T17:25:19.852Z,7.13
2017-12-25T17:27:47.132Z,6.50
2017-12-25T17:30:14.378Z,7.40
2017-12-25T17:32:41.639Z,7.40
2017-12-25T17:35:08.894Z,8.00
2017-12-25T17:37:36.241Z,6.70
2017-12-25T17:40:03.492Z,6.67
2017-12-25T17:42:30.761Z,7.30
2017-12-25T17:44:58.024Z,7.63
2017-12-25T17:47:25.282Z,7.57
2017-12-25T17:49:52.545Z,7.17
2017-12-25T17:52:19.796Z,6.87
2017-12-25T17:54:47.067Z,6.87
2017-12-25T17:57:14.316Z,7.60
2017-12-25T17:59:41.576Z,7.13
2017-12-25T18:02:08.824Z,7.93
2017-12-25T18:04:36.093Z,6.27
2017-12-25T18:07:04.129Z,7.27
2017-12-25T18:09:31.396Z,6.83
2017-12-25T18:11:58.636Z,6.40
2017-12-25T18:14:25.904Z,7.73
2017-12-25T18:16:53.162Z,7.27
2017-12-25T18:19:20.408Z,6.77
2017-12-25T18:21:47.981Z,8.17
2017-12-25T18:24:15.226Z,7.60
2017-12-25T18:26:42.505Z,7.33
2017-12-25T18:29:09.745Z,9.43
2017-12-25T18:31:37.014Z,9.20
2017-12-25T18:34:04.279Z,8.97
2017-12-25T18:36:31.605Z,9.60
2017-12-25T18:38:58.809Z,9.50
2017-12-25T18:41:26.088Z,9.60
2017-12-25T18:43:53.918Z,9.60
2017-12-25T18:46:21.352Z,8.33
2017-12-25T18:48:48.630Z,9.80
2017-12-25T18:51:15.887Z,10.00
2017-12-25T18:53:43.150Z,22.67
2017-12-25T18:56:10.429Z,9.73
2017-12-25T18:58:37.684Z,10.70
2017-12-25T19:01:04.958Z,9.40
2017-12-25T19:03:32.250Z,14.63
2017-12-25T19:06:03.464Z,9.67
2017-12-25T19:08:30.723Z,9.00
2017-12-25T19:10:58.052Z,9.20
2017-12-25T19:13:25.311Z,10.00
2017-12-25T19:15:52.591Z,9.85
2017-12-25T19:18:19.860Z,9.63
2017-12-25T19:20:47.119Z,9.17
2017-12-25T19:23:14.457Z,11.70
2017-12-25T19:25:41.777Z,13.27
2017-12-25T19:28:09.109Z,11.07
2017-12-25T19:30:36.361Z,9.77
2017-12-25T19:33:03.637Z,8.87
2017-12-25T19:35:30.888Z,8.47
2017-12-25T19:37:58.167Z,9.37
2017-12-25T19:40:25.419Z,8.87
2017-12-25T19:42:52.685Z,8.80
2017-12-25T19:45:19.941Z,9.33
2017-12-25T19:47:47.272Z,7.90
2017-12-25T19:50:14.524Z,8.30
2017-12-25T19:52:41.889Z,9.27
2017-12-25T19:55:09.148Z,8.70
2017-12-25T19:57:36.419Z,9.33
2017-12-25T20:00:03.682Z,10.67
2017-12-25T20:02:30.960Z,16.07
2017-12-25T20:04:58.226Z,21.53
2017-12-25T20:07:25.509Z,18.30
2017-12-25T20:09:52.772Z,36.07
2017-12-25T20:12:20.049Z,24.13
2017-12-25T20:14:47.374Z,14.70
2017-12-25T20:17:14.637Z,20.73
2017-12-25T20:19:41.980Z,13.37
2017-12-25T20:22:09.248Z,11.17
2017-12-25T20:24:36.534Z,10.00
2017-12-25T20:27:03.794Z,9.53
2017-12-25T20:29:31.064Z,10.03
2017-12-25T20:31:58.329Z,10.93
2017-12-25T20:34:25.612Z,10.10
2017-12-25T20:36:52.900Z,12.57
2017-12-25T20:39:20.153Z,9.10
2017-12-25T20:41:47.409Z,9.47
2017-12-25T20:44:14.680Z,9.10
2017-12-25T20:46:41.938Z,10.00
2017-12-25T20:49:09.216Z,21.27
2017-12-25T20:51:36.581Z,10.73
2017-12-25T20:54:03.867Z,14.43
2017-12-25T20:56:31.132Z,13.37
2017-12-25T20:58:58.412Z,10.93
2017-12-25T21:01:26.202Z,11.20
2017-12-25T21:03:53.725Z,11.43
2017-12-25T21:06:20.989Z,10.60
2017-12-25T21:08:48.268Z,11.40
2017-12-25T21:11:15.533Z,12.40
2017-12-25T21:13:42.817Z,12.27
2017-12-25T21:16:10.069Z,12.90
2017-12-25T21:18:37.353Z,9.97
2017-12-25T21:21:04.636Z,11.93
2017-12-25T21:23:31.897Z,12.07
2017-12-25T21:25:59.177Z,12.00
2017-12-25T21:28:26.437Z,11.63
2017-12-25T21:30:53.717Z,12.37
2017-12-25T21:33:20.978Z,12.50
2017-12-25T21:35:48.259Z,13.27
2017-12-25T21:38:15.515Z,12.20
2017-12-25T21:40:42.794Z,10.77
2017-12-25T21:43:10.130Z,11.80
2017-12-25T21:45:37.411Z,12.90
2017-12-25T21:48:04.677Z,12.55
2017-12-25T21:50:31.956Z,15.30
2017-12-25T21:52:59.229Z,13.80
2017-12-25T21:55:26.510Z,14.00
2017-12-25T21:57:53.856Z,13.97
2017-12-25T22:00:21.157Z,14.87
2017-12-25T22:02:48.397Z,13.67
2017-12-25T22:05:15.673Z,15.02
2017-12-25T22:07:42.946Z,15.27
2017-12-25T22:10:10.202Z,14.33
2017-12-25T22:12:37.482Z,16.03
2017-12-25T22:15:04.745Z,10.53
2017-12-25T22:17:32.944Z,15.50
2017-12-25T22:20:00.255Z,16.47
2017-12-25T22:22:27.538Z,16.27
2017-12-25T22:24:55.211Z,17.43
2017-12-25T22:27:22.877Z,16.43
2017-12-25T22:29:50.161Z,18.90
2017-12-25T22:32:17.755Z,18.27
2017-12-25T22:34:45.013Z,20.03
2017-12-25T22:37:12.305Z,19.10
2017-12-25T22:39:39.563Z,16.27
2017-12-25T22:42:06.839Z,19.07
2017-12-25T22:44:34.096Z,17.73
2017-12-25T22:47:01.372Z,17.80
2017-12-25T22:49:28.636Z,19.17
2017-12-25T22:51:55.921Z,17.00
2017-12-25T22:54:23.178Z,18.80
2017-12-25T22:56:50.497Z,19.97
2017-12-25T22:59:17.762Z,20.27
2017-12-25T23:01:45.104Z,19.40
2017-12-25T23:04:12.360Z,20.03
2017-12-25T23:06:39.634Z,19.07
2017-12-25T23:09:06.904Z,19.30
2017-12-25T23:11:34.163Z,19.37
2017-12-25T23:14:01.448Z,20.27
2017-12-25T23:16:28.706Z,19.27
2017-12-25T23:18:55.981Z,20.03
2017-12-25T23:21:23.246Z,19.50
2017-12-25T23:23:50.522Z,20.10
2017-12-25T23:26:17.781Z,19.70
2017-12-25T23:28:45.060Z,19.60
2017-12-25T23:31:12.324Z,20.10
2017-12-25T23:33:39.612Z,20.53
2017-12-25T23:36:06.871Z,19.70
2017-12-25T23:38:34.213Z,20.10
2017-12-25T23:41:01.474Z,19.63
2017-12-25T23:43:28.752Z,21.13
2017-12-25T23:45:56.077Z,21.67
2017-12-25T23:48:23.357Z,21.87
2017-12-25T23:50:50.622Z,20.50
2017-12-25T23:53:17.893Z,22.47
2017-12-25T23:55:45.158Z,19.30
2017-12-25T23:58:12.455Z,19.63
